Weather reports worldwide

Advertisment
Tarifa, Spain (8458): temperature & dewpoint: 27.06.2020 18:00:00 - 03.07.2020 18:00:00 (CEST)Tarifa, Spain (8458): wind speed & gusts: 27.06.2020 18:00:00 - 03.07.2020 18:00:00 (CEST)Tarifa, Spain (8458): wind direction: 27.06.2020 18:00:00 - 03.07.2020 18:00:00 (CEST)Tarifa, Spain (8458): reduced air pressure: 27.06.2020 18:00:00 - 03.07.2020 18:00:00 (CEST)Tarifa, Spain (8458): precipitation: 27.06.2020 18:00:00 - 03.07.2020 18:00:00 (CEST)
Date & Time tt [°C] td [°C] ff [km/h] ff [kn] fx [km/h] fx [kn] dd ppp [hPa] rr [mm]
03.07.2020 18:00:00 - - - - - - - - -
03.07.2020 17:00:00 21,9 17,7 21 11 34 19 W 1016,9 0,0
03.07.2020 16:00:00 22,3 17,9 19 10 32 17 W 1017,2 0,0
03.07.2020 15:00:00 22,5 18,1 15 8 30 16 W 1017,5 0,0
03.07.2020 14:00:00 21,2 18,0 12 6 28 15 W 1017,7 -
03.07.2020 13:00:00 21,8 18,0 18 10 31 17 WSW 1017,9 0,0
03.07.2020 12:00:00 21,4 18,6 19 10 31 17 W 1017,8 0,0
03.07.2020 11:00:00 21,3 19,6 20 11 29 15 W 1017,4 0,0
03.07.2020 10:00:00 21,0 19,6 10 5 19 11 W 1017,2 0,0
03.07.2020 09:00:00 20,3 19,3 10 5 16 9 W 1016,8 0,0
03.07.2020 08:00:00 19,5 18,8 7 4 16 9 WNW 1016,3 -
03.07.2020 07:00:00 19,3 18,8 12 7 20 11 WNW 1016,2 0,0
03.07.2020 06:00:00 19,1 18,6 10 5 19 10 NW 1016,2 0,0
03.07.2020 05:00:00 19,4 18,8 13 7 22 12 NW 1016,1 0,0
03.07.2020 04:00:00 19,7 18,5 12 6 21 11 NW 1016,5 0,0
03.07.2020 03:00:00 20,4 18,7 11 6 19 10 WNW 1017,0 0,0
03.07.2020 02:00:00 20,4 18,7 8 5 19 10 W 1017,3 -
03.07.2020 01:00:00 20,1 18,9 10 5 22 12 WNW 1017,7 0,0
03.07.2020 00:00:00 20,9 19,2 13 7 24 13 WSW 1017,8 0,0
02.07.2020 23:00:00 20,8 19,4 13 7 25 14 WSW 1017,1 0,0
02.07.2020 22:00:00 21,3 18,8 19 11 32 17 W 1015,7 0,0
02.07.2020 21:00:00 22,1 19,3 23 13 34 19 W 1015,3 0,0
02.07.2020 20:00:00 23,0 19,6 16 9 29 15 WSW 1015,2 -
02.07.2020 19:00:00 23,1 19,3 5 3 19 11 SE 1015,5 0,0
02.07.2020 18:00:00 23,1 18,6 7 4 19 10 W 1015,8 0,0
02.07.2020 17:00:00 23,3 19,4 3 2 27 15 W 1015,9 0,0
02.07.2020 16:00:00 22,8 19,8 21 11 35 19 W 1016,3 0,0
02.07.2020 15:00:00 23,2 19,8 20 11 30 16 W 1016,5 0,0
02.07.2020 14:00:00 22,6 20,3 21 12 32 17 WSW 1016,7 -
02.07.2020 13:00:00 21,7 20,0 13 7 23 12 W 1017,0 0,0
02.07.2020 12:00:00 21,2 19,8 13 7 25 13 W 1016,9 0,0
02.07.2020 11:00:00 20,4 19,2 14 7 28 15 W 1016,5 0,0
02.07.2020 10:00:00 20,1 19,3 14 8 26 14 W 1016,3 0,0
02.07.2020 09:00:00 19,9 18,9 15 8 29 16 WNW 1015,9 0,0
02.07.2020 08:00:00 19,9 18,9 16 8 27 15 WNW 1014,9 -
02.07.2020 07:00:00 19,7 18,9 17 9 27 14 WNW 1014,6 0,0
02.07.2020 06:00:00 19,2 18,7 14 8 23 13 W 1014,3 0,0
02.07.2020 05:00:00 19,0 18,7 14 8 25 14 W 1014,2 0,0
02.07.2020 04:00:00 18,9 18,5 13 7 23 12 W 1014,3 0,0
02.07.2020 03:00:00 19,6 18,9 14 7 25 13 WNW 1014,3 0,0
02.07.2020 02:00:00 19,1 18,6 11 6 24 13 NW 1014,7 -
02.07.2020 01:00:00 19,7 19,3 14 8 22 12 WNW 1014,9 0,0
02.07.2020 00:00:00 19,7 19,3 11 6 20 11 W 1014,5 0,0
01.07.2020 23:00:00 19,2 18,7 12 6 21 11 WSW 1013,9 0,0
01.07.2020 22:00:00 19,9 19,1 12 7 22 12 W 1013,0 0,0
01.07.2020 21:00:00 20,9 19,3 11 6 23 13 W 1012,8 0,0
01.07.2020 20:00:00 21,5 19,3 18 10 31 17 W 1012,9 -
01.07.2020 19:00:00 21,7 19,1 15 8 27 14 W 1012,8 0,0
01.07.2020 18:00:00 22,5 19,3 14 8 30 16 W 1013,2 0,0
01.07.2020 17:00:00 22,6 19,0 20 11 32 18 W 1013,5 0,0
01.07.2020 16:00:00 22,5 18,9 21 12 31 17 W 1013,7 0,0
01.07.2020 15:00:00 22,6 18,8 17 9 26 14 W 1014,0 0,0
01.07.2020 14:00:00 22,6 18,5 15 8 27 15 WNW 1014,3 -
01.07.2020 13:00:00 22,5 18,7 16 9 30 16 W 1014,7 0,0
01.07.2020 12:00:00 21,7 18,5 16 9 29 15 W 1014,8 0,0
01.07.2020 11:00:00 21,2 18,5 14 8 27 15 W 1014,9 0,0
01.07.2020 10:00:00 20,4 18,5 16 9 26 14 W 1014,8 0,0
01.07.2020 09:00:00 20,1 18,4 14 8 27 14 W 1014,5 0,0
01.07.2020 08:00:00 19,8 18,5 16 8 26 14 W 1013,9 -
01.07.2020 07:00:00 19,8 18,8 12 7 24 13 W 1013,4 0,0
01.07.2020 06:00:00 20,0 19,0 16 9 24 13 W 1013,3 0,0
01.07.2020 05:00:00 19,9 19,1 13 7 25 13 WNW 1012,9 0,0
01.07.2020 04:00:00 19,6 18,8 15 8 21 12 WNW 1013,0 0,0
01.07.2020 03:00:00 19,7 18,9 13 7 21 11 NW 1013,3 0,0
01.07.2020 02:00:00 20,6 20,1 14 7 25 13 WNW 1013,7 -
01.07.2020 01:00:00 20,7 20,4 14 8 25 14 WNW 1013,9 0,0
01.07.2020 00:00:00 20,7 20,2 13 7 20 11 WNW 1013,5 0,0
30.06.2020 23:00:00 20,9 20,3 12 7 18 10 NW 1012,7 0,0
30.06.2020 22:00:00 21,7 19,8 6 3 10 5 NW 1012,1 0,0
30.06.2020 21:00:00 23,1 19,8 4 2 11 6 S 1011,4 0,0
30.06.2020 20:00:00 25,0 19,6 5 3 22 12 NW 1011,2 -
30.06.2020 19:00:00 25,3 19,6 14 8 28 15 E 1011,1 0,0
30.06.2020 18:00:00 24,8 19,8 21 11 35 19 E 1011,5 0,0
30.06.2020 17:00:00 25,0 20,3 23 13 37 20 E 1011,7 0,0
30.06.2020 16:00:00 24,7 20,2 24 13 38 20 E 1011,9 0,0
30.06.2020 15:00:00 24,8 20,3 25 13 37 20 E 1012,3 0,0
30.06.2020 14:00:00 24,6 20,1 21 11 32 17 E 1012,7 -
30.06.2020 13:00:00 24,5 19,6 18 10 31 17 E 1012,7 0,0
30.06.2020 12:00:00 24,2 19,9 19 11 29 16 E 1012,5 0,0
30.06.2020 11:00:00 23,1 19,6 18 10 30 16 E 1012,3 0,0
30.06.2020 10:00:00 22,4 19,6 19 10 34 18 E 1011,9 0,0
30.06.2020 09:00:00 21,4 19,5 22 12 35 19 E 1011,1 0,0
30.06.2020 08:00:00 20,8 19,6 24 13 34 19 E 1010,5 -
30.06.2020 07:00:00 20,4 19,8 21 12 41 22 E 1010,8 0,0
30.06.2020 06:00:00 20,5 19,3 25 13 55 30 E 1010,3 0,0
30.06.2020 05:00:00 20,7 19,3 42 23 63 34 E 1008,7 0,0
30.06.2020 04:00:00 20,7 18,8 40 21 59 32 E 1009,1 0,0
30.06.2020 03:00:00 21,5 17,7 34 18 55 30 ENE 1010,0 0,0
30.06.2020 02:00:00 22,0 17,5 32 18 54 29 E 1010,9 -
30.06.2020 01:00:00 22,5 17,0 31 17 57 31 ENE 1011,4 0,0
30.06.2020 00:00:00 22,9 15,7 40 22 61 33 ENE 1011,4 0,0
29.06.2020 23:00:00 22,9 14,2 33 18 55 30 E 1010,9 0,0
29.06.2020 22:00:00 22,9 15,3 34 18 56 30 ENE 1010,6 0,0
29.06.2020 21:00:00 23,2 15,3 32 17 55 30 ENE 1010,3 0,0
29.06.2020 20:00:00 24,6 13,8 34 19 52 28 ENE 1010,8 -
29.06.2020 19:00:00 25,3 13,2 32 18 52 28 ENE 1010,9 0,0
29.06.2020 18:00:00 25,6 15,3 32 17 53 29 ENE 1011,6 0,0
29.06.2020 17:00:00 25,5 15,8 32 17 48 26 ENE 1012,2 0,0
29.06.2020 16:00:00 26,2 15,0 29 16 47 26 ENE 1012,9 0,0
29.06.2020 15:00:00 27,0 12,6 29 16 49 26 E 1013,2 0,0
29.06.2020 14:00:00 24,9 16,9 32 17 46 25 ENE 1013,6 -
29.06.2020 13:00:00 24,7 15,9 24 13 39 21 ENE 1014,4 0,0
29.06.2020 12:00:00 23,3 17,5 28 15 39 21 E 1014,6 0,0
29.06.2020 11:00:00 24,8 15,4 23 12 35 19 E 1014,2 0,0
29.06.2020 10:00:00 25,1 13,7 19 10 29 16 ENE 1014,0 0,0
29.06.2020 09:00:00 23,1 14,9 18 10 28 15 ENE 1013,8 0,0
29.06.2020 08:00:00 20,2 18,3 17 9 30 16 ENE 1013,7 -
29.06.2020 07:00:00 19,4 18,4 19 10 33 18 ENE 1013,7 0,0
29.06.2020 06:00:00 19,5 18,7 21 12 33 18 ENE 1013,3 0,0
29.06.2020 05:00:00 19,7 19,1 19 11 35 19 ENE 1013,4 0,0
29.06.2020 04:00:00 19,5 18,2 22 12 32 17 E 1014,1 0,0
29.06.2020 03:00:00 20,4 17,8 18 10 33 18 E 1014,4 0,0
29.06.2020 02:00:00 21,3 17,5 26 14 37 20 ENE 1014,7 -
29.06.2020 01:00:00 20,0 18,3 26 14 36 19 ENE 1014,9 0,0
29.06.2020 00:00:00 22,5 16,6 14 7 23 13 E 1014,7 0,0
28.06.2020 23:00:00 23,5 13,7 13 7 22 12 ENE 1014,5 0,0
28.06.2020 22:00:00 24,2 14,3 14 7 26 14 ENE 1014,3 0,0
28.06.2020 21:00:00 24,9 15,3 16 9 31 17 ENE 1013,9 0,0
28.06.2020 20:00:00 25,6 15,9 22 12 35 19 ENE 1013,3 -
28.06.2020 19:00:00 27,2 17,1 22 12 33 18 E 1013,5 0,0
28.06.2020 18:00:00 25,1 19,0 9 5 24 13 ESE 1014,1 0,0
28.06.2020 17:00:00 25,6 20,6 6 3 14 7 SSW 1014,5 0,0
28.06.2020 16:00:00 23,8 19,9 8 4 18 10 W 1014,9 0,0
28.06.2020 15:00:00 23,2 20,1 11 6 21 11 W 1015,0 0,0
28.06.2020 14:00:00 22,3 19,6 16 9 25 14 W 1015,8 -
28.06.2020 13:00:00 21,2 19,7 15 8 26 14 WNW 1016,3 0,0
28.06.2020 12:00:00 20,6 19,4 15 8 26 14 WNW 1016,5 0,0
28.06.2020 11:00:00 21,0 19,5 16 9 26 14 W 1016,3 0,0
28.06.2020 10:00:00 21,4 18,8 14 7 22 12 WNW 1016,0 0,0
28.06.2020 09:00:00 20,7 18,5 10 5 19 10 NW 1015,9 0,0
28.06.2020 08:00:00 19,3 17,8 11 6 16 9 NNW 1015,1 -
28.06.2020 07:00:00 18,4 17,4 10 6 16 9 NNW 1014,9 0,0
28.06.2020 06:00:00 18,6 18,1 11 6 16 9 NW 1014,7 0,0
28.06.2020 05:00:00 18,7 18,1 10 5 14 8 NW 1014,8 0,0
28.06.2020 04:00:00 18,7 18,2 7 4 18 10 NW 1015,2 0,0
28.06.2020 03:00:00 19,2 18,7 8 4 19 10 WNW 1015,3 0,0
28.06.2020 02:00:00 19,0 18,3 8 4 19 11 W 1015,8 -
28.06.2020 01:00:00 19,1 18,5 14 7 24 13 W 1016,0 0,0
28.06.2020 00:00:00 19,2 18,2 10 6 22 12 W 1015,8 0,0
27.06.2020 23:00:00 19,5 18,3 9 5 21 12 W 1015,4 0,0
27.06.2020 22:00:00 19,9 18,8 10 5 28 15 W 1014,6 0,0
27.06.2020 21:00:00 21,2 19,1 16 9 29 16 W 1014,2 0,0
27.06.2020 20:00:00 21,6 19,0 15 8 31 17 W 1014,5 -
27.06.2020 19:00:00 21,6 18,2 18 10 35 19 W 1014,7 0,0
27.06.2020 18:00:00 21,5 18,7 23 12 35 19 W 1015,2 0,0

tt = temperature
td = dewpoint
ff = wind speed
fx = gusts
dd = wind direction
ppp = reduced air pressure
rr = precipitation

Next stations